Timeline UpdatesTrip UpdatesNews PostsPvt Posts♥♥Travel TipsAdmin PostsConv PostsFollowed PostsChat RequestsBlog PostsPNR Posts

Disclaimer
Search
 
 
Sun Oct 26, 2014 13:12:44 ISTHomeTrainsΣChainsAtlasPNRForumGalleryNewsFAQTripsMembersLoginFeedback
No Recent News for this Train
Other Trains in the News **new
Latest...
⇐ Return Journey: Train# 14236

14235/Varanasi Bareilly Express

Time-Table HAS CHANGED.
Oct 18 (7:12AM)
Change Departure Station:
Change Arrival Station:
Post a Train Travel TipPost a Train Travel Tip **new
Post a Comment/Question/Picture/VideoPost a Comment/Question/Picture/Video
Pantry/Catering
✕ NO Pantry Car
✕ NO Catering
RSA - Rake Sharing
Rake/Coach Composition
3A-1, FC-1, SL-5, SLR-2, GS-5=14 coaches; Entry# 185302 -- Author: akg
Loco
LKO PRABAL WDM 3A
News    PNR    Forum    Time-Table    Availability    Fare Chart    Map    Arr/Dep History    Trips    Gallery    ΣChains    X/O    Timeline    
Travel Time: 0h 46m    1 halts    Distance: 20 km    Avg Speed: 26 km/hr
Type: Mail/Express
Zone: NR/Northern
Departs @ 13:19 (Avg 44m late)
Platform# ???
SMTWTFS
Pitambarpur/PMR 
Arrives @ 14:05 (Avg 19m late)
Platform# 3
SMTWTFS
Bareilly Junction/BE 

1 halts. 2 intermediate Stations between Pitambarpur and Bareilly Junction

Show ALL intermediate Stations  Show Old Time-Table

#TrkCodeStation NameX/OArrivesAvgDepartsAvgHaltPFDay#KmSpeedElevZoneAddress
1/==/BSBVaranasi Junction (9)  -23:45 23:40+291-538.86682mNRVaranasi 221002, Uttar Pradesh
2/==/BTPBabatpur (2)  00:02 23:57+1900:04 23:59+182m--1-520.26184mNRSatomahua-Mangari Rd, Uttar Pradesh
3/==/ZBDZafarabad Junction (4)  00:32 00:31+2400:34 00:33+242m--2-487.64383mNRNational Highway 56, Uttar Pradesh
4|--|JNUJaunpur Junction (5)  00:43 00:42+1700:45 00:44+182m12-481.17283mNRJaunpur, Uttar Pradesh
5|--|KSKheta Sarai (1)01:04 01:03+2301:06 01:05+232m12-458.44988mNRKheta Sarai, Uttar Pradesh
6|--|SHGShahganj Junction (4)X  01:19 01:18+2101:21 01:20+232m12-447.85890mNRShahganj, Uttar Pradesh
7|--|MLPRMalipur (2)X  01:46+3001:48+312m--2-422.85792mNRMalipur, Uttar Pradesh
8|--|ABPAkbarpur Junction (2)  02:08+2102:10+212m--2-403.78392mNRAkbarpur, Uttar Pradesh
9|--|GGJGoshainGanj (3)  02:26+3702:28+372m--2-381.57098mNRGoshainganj, Uttar Pradesh
10|--|AYAyodhya Junction (3)X  02:55+3902:57+392m--2-349.82098mNRAyodhya, Uttar Pradesh
11|--|FDFaizabad Junction (5)  03:17+3303:22+345m--2-343.174104mNRFaizabad, Uttar Pradesh
12|--|RDLRudauli (2)  03:53+1:0003:55+1:002m--2-305.073112mNRRudauli, Uttar Pradesh
13|--|DYDDaryabadX  04:13 04:14+1:0804:15 04:16+1:082m--2-281.824116mNRFaizabad Rd, Uttar Pradesh
14|--|BBKBarabanki Junction (4)X  05:53+1405:55+182m12-243.851122mNRPin-225001, Uttar Pradesh
15/==/SFHSafedabad (3)  06:04+2106:06+202m--2-236.240120mNRBarabanki, Uttar Pradesh
16/==/JRRJugaur (1)X  06:11-06:13-2m12-232.855123mNRCanal Rd, Uttar Pradesh
17/--/MLMalhaur (3)X  06:19+1906:21+202m--2-227.321121mNRLucknow, Uttar Pradesh
18/==/LKOLucknow Charbagh NR (9)XO  07:00 06:55+807:10+810 15m62-215.435123mNR226004, Uttar Pradesh
19/==/KKJKakori (3)X  07:35+2407:37+282m--2-200.872129mNRSH 25, Uttar Pradesh
20/==/MLDMalihabadX  07:45+3407:47+522m--2-191.157130mNRMalihabad, Uttar Pradesh
21/==/DILDilawarnagarX  07:53+5307:55+532m--2-185.565133mNRSH 25, Uttar Pradesh
22/==/RBDRahimabadXO  08:04 08:02+5508:06 08:04+1:022m--2-177.966132mNRSH 25, Uttar Pradesh
23/==/SANSandila (3)X  08:15 08:14+1:0308:17 08:16+1:032m--2-166.945132mNRSandila, Uttar Pradesh
24/==/UTAUmar TaliX  08:26 08:23+1:0208:28 08:25+1:012m--2-161.664135mNRHardoi, Uttar Pradesh
25/==/DLQDalelnagarX  08:34 08:31+1:0308:36 08:33+1:052m--2-155.265136mNRSH 25, Uttar Pradesh
26/==/BLMBalamau Junction (4)X  08:43 08:41+1:0908:45 08:43+1:092m--2-146.558139mNRBalamau, Uttar Pradesh
27/==/BGHBaghauliX  08:54 08:52+1:1008:56 08:54+1:102m--2-137.852141mNRsharda nehar, Uttar Pradesh
28/==/MSTMasit  09:03 09:02+1:1409:05 09:04+1:202m--2-130.950141mNRSH 25, Uttar Pradesh
29/==/KARKarna  09:13+1:1709:15+1:202m--2-123.449143mNRHardoi, Uttar Pradesh
30/==/HRIHardoi (5)X  09:25 09:27+5109:27 09:29+512m12-113.539146mNRHardoi, Uttar Pradesh
31/==/KUFKaurhaXO  09:40 09:42+1:1809:42 09:44+1:182m--2-105.159148mNRSH 25, Uttar Pradesh
32/==/BEGBehtagokulX  09:51 09:53+1:1709:53 09:55+1:172m--2-96.248152mNRBehtagokul, Uttar Pradesh
33/==/TDPTodarpurX  10:00 10:03+1:1810:02 10:05+1:242m--2-89.864147mNRSH 25, Uttar Pradesh
34/==/AJIAnjhi ShahabadX  10:10 10:13+1:1110:12 10:15+1:112m--2-81.347148mNRAnjhi Shahabad, Uttar Pradesh
35/==/AIGAlgawanX  10:19 10:23+1:1110:21 10:25+1:112m--2-75.064152mNRAlgawan, Uttar Pradesh
36/==/KHKahiliyaX  10:29 10:33+1:1110:31 10:35+1:252m--2-66.57152mNRSH 25, Uttar Pradesh
37/==/ROZARoza Junction (4)  10:46 11:45+1:0710:48 11:47+1:182m--2-57.924156mNRShahjahanpur, Uttar Pradesh
38/==/SPNShahjahanpur Junction (3)  12:05+1612:10+165m32-50.656156mNRShahjahanpur, Uttar Pradesh
39/==/BTRABanthraX  12:18 12:19+4212:20 12:21+432m--2-42.258154mNRNH 24, Uttar Pradesh
40/==/TLHTilharX  12:29 12:31+4412:31 12:33+462m--2-32.558163mNRTilhar, Uttar Pradesh
41/==/MKMiranpur KatraX  12:40 12:43+4612:42 12:45+492m--2-22.748162mNRShahjahanpur, Uttar Pradesh
42/==/BLPUBilpurX  12:50 12:54+5012:52 12:56+552m--2-15.647161mNRFatehganj, Uttar Pradesh
43/==/TSATisua  13:00 13:05+5413:02 13:07+542m--2-8.551165mNRNational Highway 24, Uttar Pradesh
44/==/PMRPitambarpur (3)»X  13:11 13:17+4013:13 13:19+442m--20.057171mNRPitambarpur, Uttar Pradesh
45/==/RYSRasuriyaX  13:22 13:29+5713:24 13:31+572m--29.518174mNRNH 24, Uttar Pradesh
46/==/BEBareilly Junction (4)•  14:05+19-3219.9-174mNRBareilly, Uttar Pradesh
Scroll to Top
Scroll to Bottom